<?xml version="1.0" encoding="UTF-8" standalone="no" ?>
<gpx xmlns="http://www.topografix.com/GPX/1/1" xmlns:xsi="http://www.w3.org/2001/XMLSchema-instance" xsi:schemaLocation="http://www.topografix.com/GPX/1/1 http://www.topografix.com/GPX/1/1/gpx.xsd" version="1.1" creator="VisuGPX - https://www.visugpx.com">
  <metadata>
    <name>Vailhan Plateau de Falgairas</name>
    <desc><![CDATA[Randonnée sur le plateau et près du lac de Vailhan. Belles vues]]></desc>
  </metadata>
  <trk>
    <name><![CDATA[Vailhan  plateau du Falgairas]]></name>
    <trkseg>
      <trkpt lat="43.54896" lon="3.33177">
        <ele>250</ele>
        <time>2016-12-26T12:03:50+01:00</time>
      </trkpt>
      <trkpt lat="43.54876" lon="3.33145">
        <ele>251</ele>
        <time>2017-04-03T23:25:22+02:00</time>
      </trkpt>
      <trkpt lat="43.54867" lon="3.33126">
        <ele>251</ele>
        <time>2017-04-03T23:25:27+02:00</time>
      </trkpt>
      <trkpt lat="43.5487" lon="3.33115">
        <ele>251</ele>
        <time>2016-12-26T12:04:49+01:00</time>
      </trkpt>
      <trkpt lat="43.54897" lon="3.33078">
        <ele>253</ele>
        <time>2016-12-26T12:05:50+01:00</time>
      </trkpt>
      <trkpt lat="43.54925" lon="3.33031">
        <ele>256</ele>
        <time>2016-12-26T12:06:42+01:00</time>
      </trkpt>
      <trkpt lat="43.54963" lon="3.32977">
        <ele>262</ele>
        <time>2016-12-26T12:07:37+01:00</time>
      </trkpt>
      <trkpt lat="43.54991" lon="3.32947">
        <ele>267</ele>
        <time>2016-12-26T12:08:37+01:00</time>
      </trkpt>
      <trkpt lat="43.55005" lon="3.32919">
        <ele>272</ele>
        <time>2017-04-03T23:25:57+02:00</time>
      </trkpt>
      <trkpt lat="43.55031" lon="3.3292">
        <ele>275</ele>
        <time>2016-12-26T12:09:46+01:00</time>
      </trkpt>
      <trkpt lat="43.55083" lon="3.3292">
        <ele>283</ele>
        <time>2016-12-26T12:10:38+01:00</time>
      </trkpt>
      <trkpt lat="43.55098" lon="3.3293">
        <ele>285</ele>
        <time>2017-04-03T23:26:12+02:00</time>
      </trkpt>
      <trkpt lat="43.55108" lon="3.32968">
        <ele>282</ele>
        <time>2016-12-26T12:11:21+01:00</time>
      </trkpt>
      <trkpt lat="43.55134" lon="3.33015">
        <ele>283</ele>
        <time>2016-12-26T12:12:12+01:00</time>
      </trkpt>
      <trkpt lat="43.55174" lon="3.33056">
        <ele>285</ele>
        <time>2016-12-26T12:12:57+01:00</time>
      </trkpt>
      <trkpt lat="43.55222" lon="3.33071">
        <ele>287</ele>
        <time>2016-12-26T12:13:56+01:00</time>
      </trkpt>
      <trkpt lat="43.55248" lon="3.33061">
        <ele>290</ele>
        <time>2017-04-03T23:26:37+02:00</time>
      </trkpt>
      <trkpt lat="43.55262" lon="3.33042">
        <ele>290</ele>
        <time>2016-12-26T12:14:57+01:00</time>
      </trkpt>
      <trkpt lat="43.55265" lon="3.32987">
        <ele>293</ele>
        <time>2016-12-26T12:15:41+01:00</time>
      </trkpt>
      <trkpt lat="43.55243" lon="3.32919">
        <ele>295</ele>
        <time>2016-12-26T12:16:36+01:00</time>
      </trkpt>
      <trkpt lat="43.55246" lon="3.32868">
        <ele>293</ele>
        <time>2017-04-03T23:26:57+02:00</time>
      </trkpt>
      <trkpt lat="43.55215" lon="3.32865">
        <ele>297</ele>
        <time>2016-12-26T12:17:37+01:00</time>
      </trkpt>
      <trkpt lat="43.55173" lon="3.32824">
        <ele>305</ele>
        <time>2016-12-26T12:18:24+01:00</time>
      </trkpt>
      <trkpt lat="43.55153" lon="3.32783">
        <ele>308</ele>
        <time>2016-12-26T12:19:24+01:00</time>
      </trkpt>
      <trkpt lat="43.55143" lon="3.32752">
        <ele>310</ele>
        <time>2017-04-03T23:27:17+02:00</time>
      </trkpt>
      <trkpt lat="43.55131" lon="3.32725">
        <ele>311</ele>
        <time>2016-12-26T12:20:38+01:00</time>
      </trkpt>
      <trkpt lat="43.55124" lon="3.32698">
        <ele>311</ele>
        <time>2017-04-03T23:27:27+02:00</time>
      </trkpt>
      <trkpt lat="43.55107" lon="3.32695">
        <ele>311</ele>
        <time>2016-12-26T12:21:30+01:00</time>
      </trkpt>
      <trkpt lat="43.55091" lon="3.32658">
        <ele>312</ele>
        <time>2017-04-03T23:27:37+02:00</time>
      </trkpt>
      <trkpt lat="43.55099" lon="3.3262">
        <ele>312</ele>
        <time>2016-12-26T12:22:31+01:00</time>
      </trkpt>
      <trkpt lat="43.55123" lon="3.32586">
        <ele>313</ele>
        <time>2017-04-03T23:27:47+02:00</time>
      </trkpt>
      <trkpt lat="43.55142" lon="3.32557">
        <ele>312</ele>
        <time>2017-04-03T23:27:52+02:00</time>
      </trkpt>
      <trkpt lat="43.55164" lon="3.32537">
        <ele>311</ele>
        <time>2017-04-03T23:27:57+02:00</time>
      </trkpt>
      <trkpt lat="43.5517" lon="3.32522">
        <ele>309</ele>
        <time>2017-04-03T23:28:02+02:00</time>
      </trkpt>
      <trkpt lat="43.55109" lon="3.32554">
        <ele>311</ele>
        <time>2016-12-26T12:23:55+01:00</time>
      </trkpt>
      <trkpt lat="43.55066" lon="3.32535">
        <ele>307</ele>
        <time>2016-12-26T12:24:43+01:00</time>
      </trkpt>
      <trkpt lat="43.55039" lon="3.32517">
        <ele>304</ele>
        <time>2016-12-26T12:25:27+01:00</time>
      </trkpt>
      <trkpt lat="43.55015" lon="3.32515">
        <ele>302</ele>
        <time>2017-04-03T23:28:22+02:00</time>
      </trkpt>
      <trkpt lat="43.54987" lon="3.32482">
        <ele>300</ele>
        <time>2016-12-26T12:27:55+01:00</time>
      </trkpt>
      <trkpt lat="43.5498" lon="3.32451">
        <ele>300</ele>
        <time>2017-04-03T23:28:32+02:00</time>
      </trkpt>
      <trkpt lat="43.54977" lon="3.32411">
        <ele>301</ele>
        <time>2016-12-26T12:28:39+01:00</time>
      </trkpt>
      <trkpt lat="43.54978" lon="3.32349">
        <ele>302</ele>
        <time>2016-12-26T12:29:22+01:00</time>
      </trkpt>
      <trkpt lat="43.54973" lon="3.32287">
        <ele>301</ele>
        <time>2016-12-26T12:30:06+01:00</time>
      </trkpt>
      <trkpt lat="43.54956" lon="3.32229">
        <ele>300</ele>
        <time>2016-12-26T12:30:51+01:00</time>
      </trkpt>
      <trkpt lat="43.54924" lon="3.32157">
        <ele>304</ele>
        <time>2016-12-26T12:31:33+01:00</time>
      </trkpt>
      <trkpt lat="43.54914" lon="3.32114">
        <ele>306</ele>
        <time>2016-12-26T12:32:20+01:00</time>
      </trkpt>
      <trkpt lat="43.54949" lon="3.32081">
        <ele>308</ele>
        <time>2016-12-26T12:33:12+01:00</time>
      </trkpt>
      <trkpt lat="43.54977" lon="3.32071">
        <ele>307</ele>
        <time>2016-12-26T12:34:22+01:00</time>
      </trkpt>
      <trkpt lat="43.54968" lon="3.32009">
        <ele>308</ele>
        <time>2017-04-03T23:29:17+02:00</time>
      </trkpt>
      <trkpt lat="43.54983" lon="3.31965">
        <ele>307</ele>
        <time>2016-12-26T12:35:15+01:00</time>
      </trkpt>
      <trkpt lat="43.55022" lon="3.31926">
        <ele>307</ele>
        <time>2016-12-26T12:36:03+01:00</time>
      </trkpt>
      <trkpt lat="43.55068" lon="3.319">
        <ele>307</ele>
        <time>2016-12-26T12:36:54+01:00</time>
      </trkpt>
      <trkpt lat="43.55107" lon="3.31876">
        <ele>310</ele>
        <time>2016-12-26T12:37:42+01:00</time>
      </trkpt>
      <trkpt lat="43.55149" lon="3.31862">
        <ele>314</ele>
        <time>2016-12-26T12:38:57+01:00</time>
      </trkpt>
      <trkpt lat="43.5519" lon="3.3186">
        <ele>318</ele>
        <time>2016-12-26T12:40:06+01:00</time>
      </trkpt>
      <trkpt lat="43.55225" lon="3.31855">
        <ele>322</ele>
        <time>2016-12-26T12:41:09+01:00</time>
      </trkpt>
      <trkpt lat="43.55281" lon="3.31856">
        <ele>324</ele>
        <time>2016-12-26T12:42:18+01:00</time>
      </trkpt>
      <trkpt lat="43.55344" lon="3.31844">
        <ele>324</ele>
        <time>2016-12-26T12:44:10+01:00</time>
      </trkpt>
      <trkpt lat="43.55386" lon="3.31809">
        <ele>323</ele>
        <time>2016-12-26T12:48:44+01:00</time>
      </trkpt>
      <trkpt lat="43.55411" lon="3.31787">
        <ele>323</ele>
        <time>2016-12-26T12:50:55+01:00</time>
      </trkpt>
      <trkpt lat="43.5545" lon="3.31753">
        <ele>327</ele>
        <time>2016-12-26T12:51:45+01:00</time>
      </trkpt>
      <trkpt lat="43.55484" lon="3.31714">
        <ele>329</ele>
        <time>2016-12-26T12:52:35+01:00</time>
      </trkpt>
      <trkpt lat="43.55506" lon="3.31688">
        <ele>331</ele>
        <time>2016-12-26T12:53:52+01:00</time>
      </trkpt>
      <trkpt lat="43.55575" lon="3.31675">
        <ele>329</ele>
        <time>2016-12-26T12:54:46+01:00</time>
      </trkpt>
      <trkpt lat="43.55597" lon="3.31685">
        <ele>327</ele>
        <time>2017-04-03T23:30:37+02:00</time>
      </trkpt>
      <trkpt lat="43.5562" lon="3.31673">
        <ele>324</ele>
        <time>2016-12-26T12:55:47+01:00</time>
      </trkpt>
      <trkpt lat="43.55663" lon="3.31669">
        <ele>318</ele>
        <time>2016-12-26T12:57:06+01:00</time>
      </trkpt>
      <trkpt lat="43.55679" lon="3.31666">
        <ele>316</ele>
        <time>2017-04-03T23:30:52+02:00</time>
      </trkpt>
      <trkpt lat="43.55721" lon="3.3168">
        <ele>314</ele>
        <time>2016-12-26T12:58:13+01:00</time>
      </trkpt>
      <trkpt lat="43.55745" lon="3.3168">
        <ele>312</ele>
        <time>2016-12-26T12:59:03+01:00</time>
      </trkpt>
      <trkpt lat="43.55756" lon="3.31672">
        <ele>312</ele>
        <time>2017-04-03T23:31:07+02:00</time>
      </trkpt>
      <trkpt lat="43.55752" lon="3.31613">
        <ele>309</ele>
        <time>2016-12-26T13:00:06+01:00</time>
      </trkpt>
      <trkpt lat="43.55761" lon="3.31604">
        <ele>308</ele>
        <time>2017-04-03T23:31:17+02:00</time>
      </trkpt>
      <trkpt lat="43.5577" lon="3.3155">
        <ele>307</ele>
        <time>2016-12-26T13:00:58+01:00</time>
      </trkpt>
      <trkpt lat="43.55774" lon="3.31503">
        <ele>306</ele>
        <time>2016-12-26T13:01:44+01:00</time>
      </trkpt>
      <trkpt lat="43.55775" lon="3.31433">
        <ele>305</ele>
        <time>2016-12-26T13:02:29+01:00</time>
      </trkpt>
      <trkpt lat="43.55787" lon="3.31391">
        <ele>304</ele>
        <time>2017-04-03T23:31:37+02:00</time>
      </trkpt>
      <trkpt lat="43.55788" lon="3.31354">
        <ele>302</ele>
        <time>2016-12-26T13:03:18+01:00</time>
      </trkpt>
      <trkpt lat="43.55794" lon="3.31315">
        <ele>300</ele>
        <time>2016-12-26T13:04:14+01:00</time>
      </trkpt>
      <trkpt lat="43.5582" lon="3.31264">
        <ele>300</ele>
        <time>2016-12-26T13:04:59+01:00</time>
      </trkpt>
      <trkpt lat="43.5583" lon="3.3124">
        <ele>299</ele>
        <time>2017-04-03T23:31:57+02:00</time>
      </trkpt>
      <trkpt lat="43.55844" lon="3.31189">
        <ele>295</ele>
        <time>2016-12-26T13:05:44+01:00</time>
      </trkpt>
      <trkpt lat="43.55867" lon="3.31135">
        <ele>291</ele>
        <time>2016-12-26T13:06:32+01:00</time>
      </trkpt>
      <trkpt lat="43.55887" lon="3.31119">
        <ele>291</ele>
        <time>2017-04-03T23:32:12+02:00</time>
      </trkpt>
      <trkpt lat="43.55898" lon="3.31097">
        <ele>289</ele>
        <time>2016-12-26T13:07:31+01:00</time>
      </trkpt>
      <trkpt lat="43.55929" lon="3.31093">
        <ele>287</ele>
        <time>2017-04-03T23:32:22+02:00</time>
      </trkpt>
      <trkpt lat="43.55947" lon="3.31111">
        <ele>284</ele>
        <time>2017-04-03T23:32:27+02:00</time>
      </trkpt>
      <trkpt lat="43.55956" lon="3.31133">
        <ele>282</ele>
        <time>2016-12-26T13:08:41+01:00</time>
      </trkpt>
      <trkpt lat="43.55978" lon="3.31077">
        <ele>276</ele>
        <time>2016-12-26T13:10:06+01:00</time>
      </trkpt>
      <trkpt lat="43.56021" lon="3.31048">
        <ele>272</ele>
        <time>2016-12-26T13:11:37+01:00</time>
      </trkpt>
      <trkpt lat="43.55965" lon="3.30993">
        <ele>275</ele>
      </trkpt>
      <trkpt lat="43.55922" lon="3.30933">
        <ele>263</ele>
      </trkpt>
      <trkpt lat="43.5594" lon="3.30864">
        <ele>257</ele>
      </trkpt>
      <trkpt lat="43.55922" lon="3.3068">
        <ele>242</ele>
      </trkpt>
      <trkpt lat="43.55934" lon="3.3059">
        <ele>238</ele>
      </trkpt>
      <trkpt lat="43.55919" lon="3.30388">
        <ele>226</ele>
      </trkpt>
      <trkpt lat="43.55909" lon="3.30264">
        <ele>208</ele>
      </trkpt>
      <trkpt lat="43.55869" lon="3.30191">
        <ele>227</ele>
      </trkpt>
      <trkpt lat="43.55838" lon="3.30105">
        <ele>207</ele>
      </trkpt>
      <trkpt lat="43.55775" lon="3.29993">
        <ele>205</ele>
      </trkpt>
      <trkpt lat="43.5571" lon="3.29963">
        <ele>205</ele>
      </trkpt>
      <trkpt lat="43.55713" lon="3.29886">
        <ele>187</ele>
      </trkpt>
      <trkpt lat="43.5572" lon="3.29817">
        <ele>172</ele>
      </trkpt>
      <trkpt lat="43.55772" lon="3.29835">
        <ele>172</ele>
      </trkpt>
      <trkpt lat="43.55716" lon="3.29783">
        <ele>156</ele>
      </trkpt>
      <trkpt lat="43.55775" lon="3.29757">
        <ele>156</ele>
      </trkpt>
      <trkpt lat="43.55803" lon="3.29826">
        <ele>161</ele>
      </trkpt>
      <trkpt lat="43.55853" lon="3.29796">
        <ele>161</ele>
      </trkpt>
      <trkpt lat="43.55897" lon="3.29727">
        <ele>151</ele>
      </trkpt>
      <trkpt lat="43.55925" lon="3.29697">
        <ele>155</ele>
      </trkpt>
      <trkpt lat="43.55943" lon="3.29659">
        <ele>155</ele>
      </trkpt>
      <trkpt lat="43.55866" lon="3.29654">
        <ele>141</ele>
      </trkpt>
      <trkpt lat="43.55819" lon="3.29637">
        <ele>141</ele>
      </trkpt>
      <trkpt lat="43.55775" lon="3.2959">
        <ele>138</ele>
      </trkpt>
      <trkpt lat="43.5572" lon="3.29564">
        <ele>138</ele>
      </trkpt>
      <trkpt lat="43.55654" lon="3.29534">
        <ele>153</ele>
      </trkpt>
      <trkpt lat="43.55589" lon="3.29547">
        <ele>140</ele>
      </trkpt>
      <trkpt lat="43.55542" lon="3.29556">
        <ele>140</ele>
      </trkpt>
      <trkpt lat="43.55489" lon="3.29513">
        <ele>146</ele>
      </trkpt>
      <trkpt lat="43.55464" lon="3.29448">
        <ele>155</ele>
      </trkpt>
      <trkpt lat="43.55458" lon="3.29341">
        <ele>179</ele>
      </trkpt>
      <trkpt lat="43.55496" lon="3.29234">
        <ele>191</ele>
      </trkpt>
      <trkpt lat="43.55548" lon="3.29156">
        <ele>210</ele>
      </trkpt>
      <trkpt lat="43.55592" lon="3.29058">
        <ele>227</ele>
      </trkpt>
      <trkpt lat="43.55592" lon="3.28976">
        <ele>243</ele>
      </trkpt>
      <trkpt lat="43.55601" lon="3.28882">
        <ele>251</ele>
      </trkpt>
      <trkpt lat="43.55536" lon="3.28826">
        <ele>257</ele>
      </trkpt>
      <trkpt lat="43.55499" lon="3.28775">
        <ele>253</ele>
      </trkpt>
      <trkpt lat="43.55424" lon="3.28762">
        <ele>255</ele>
      </trkpt>
      <trkpt lat="43.55461" lon="3.28835">
        <ele>257</ele>
      </trkpt>
      <trkpt lat="43.55402" lon="3.28903">
        <ele>257</ele>
      </trkpt>
      <trkpt lat="43.55368" lon="3.28985">
        <ele>256</ele>
      </trkpt>
      <trkpt lat="43.5529" lon="3.28963">
        <ele>253</ele>
      </trkpt>
      <trkpt lat="43.552" lon="3.28989">
        <ele>254</ele>
      </trkpt>
      <trkpt lat="43.55116" lon="3.29006">
        <ele>254</ele>
      </trkpt>
      <trkpt lat="43.5506" lon="3.28968">
        <ele>254</ele>
      </trkpt>
      <trkpt lat="43.54976" lon="3.28968">
        <ele>251</ele>
      </trkpt>
      <trkpt lat="43.54945" lon="3.29036">
        <ele>234</ele>
      </trkpt>
      <trkpt lat="43.54998" lon="3.29079">
        <ele>244</ele>
      </trkpt>
      <trkpt lat="43.55069" lon="3.29062">
        <ele>249</ele>
      </trkpt>
      <trkpt lat="43.55113" lon="3.29058">
        <ele>249</ele>
      </trkpt>
      <trkpt lat="43.55175" lon="3.29049">
        <ele>249</ele>
      </trkpt>
      <trkpt lat="43.55237" lon="3.29028">
        <ele>253</ele>
      </trkpt>
      <trkpt lat="43.55306" lon="3.29062">
        <ele>251</ele>
      </trkpt>
      <trkpt lat="43.55377" lon="3.29028">
        <ele>258</ele>
      </trkpt>
      <trkpt lat="43.55443" lon="3.29006">
        <ele>258</ele>
      </trkpt>
      <trkpt lat="43.55527" lon="3.28925">
        <ele>261</ele>
      </trkpt>
      <trkpt lat="43.5553" lon="3.28783">
        <ele>253</ele>
      </trkpt>
      <trkpt lat="43.55583" lon="3.28856">
        <ele>250</ele>
      </trkpt>
      <trkpt lat="43.55598" lon="3.28925">
        <ele>251</ele>
      </trkpt>
      <trkpt lat="43.5557" lon="3.29114">
        <ele>227</ele>
      </trkpt>
      <trkpt lat="43.55527" lon="3.29199">
        <ele>212</ele>
      </trkpt>
      <trkpt lat="43.55471" lon="3.29294">
        <ele>169</ele>
      </trkpt>
      <trkpt lat="43.55458" lon="3.295">
        <ele>151</ele>
      </trkpt>
      <trkpt lat="43.55468" lon="3.29577">
        <ele>144</ele>
      </trkpt>
      <trkpt lat="43.55433" lon="3.29663">
        <ele>137</ele>
      </trkpt>
      <trkpt lat="43.55356" lon="3.29732">
        <ele>133</ele>
      </trkpt>
      <trkpt lat="43.55436" lon="3.29779">
        <ele>139</ele>
      </trkpt>
      <trkpt lat="43.5553" lon="3.29779">
        <ele>140</ele>
      </trkpt>
      <trkpt lat="43.55604" lon="3.29817">
        <ele>152</ele>
      </trkpt>
      <trkpt lat="43.55713" lon="3.29796">
        <ele>172</ele>
      </trkpt>
      <trkpt lat="43.55785" lon="3.29865">
        <ele>172</ele>
      </trkpt>
      <trkpt lat="43.55831" lon="3.29946">
        <ele>174</ele>
      </trkpt>
      <trkpt lat="43.55891" lon="3.30058">
        <ele>178</ele>
      </trkpt>
      <trkpt lat="43.55953" lon="3.30161">
        <ele>196</ele>
      </trkpt>
      <trkpt lat="43.55975" lon="3.30307">
        <ele>188</ele>
      </trkpt>
      <trkpt lat="43.55984" lon="3.30392">
        <ele>201</ele>
      </trkpt>
      <trkpt lat="43.55962" lon="3.30547">
        <ele>227</ele>
      </trkpt>
      <trkpt lat="43.55943" lon="3.30633">
        <ele>242</ele>
      </trkpt>
      <trkpt lat="43.55925" lon="3.30761">
        <ele>252</ele>
      </trkpt>
      <trkpt lat="43.55962" lon="3.30899">
        <ele>269</ele>
      </trkpt>
      <trkpt lat="43.55931" lon="3.30963">
        <ele>278</ele>
      </trkpt>
      <trkpt lat="43.55987" lon="3.31036">
        <ele>275</ele>
      </trkpt>
      <trkpt lat="43.56053" lon="3.31043">
        <ele>271</ele>
        <time>2017-04-03T23:32:47+02:00</time>
      </trkpt>
      <trkpt lat="43.56065" lon="3.31032">
        <ele>272</ele>
        <time>2016-12-26T13:15:10+01:00</time>
      </trkpt>
      <trkpt lat="43.56106" lon="3.3102">
        <ele>276</ele>
        <time>2016-12-26T13:16:30+01:00</time>
      </trkpt>
      <trkpt lat="43.56141" lon="3.31051">
        <ele>276</ele>
        <time>2016-12-26T13:17:28+01:00</time>
      </trkpt>
      <trkpt lat="43.56171" lon="3.31098">
        <ele>274</ele>
        <time>2016-12-26T13:18:16+01:00</time>
      </trkpt>
      <trkpt lat="43.562" lon="3.31155">
        <ele>272</ele>
        <time>2016-12-26T13:19:23+01:00</time>
      </trkpt>
      <trkpt lat="43.56233" lon="3.312">
        <ele>276</ele>
        <time>2016-12-26T13:20:13+01:00</time>
      </trkpt>
      <trkpt lat="43.56273" lon="3.31243">
        <ele>278</ele>
        <time>2016-12-26T13:21:24+01:00</time>
      </trkpt>
      <trkpt lat="43.56312" lon="3.31287">
        <ele>281</ele>
        <time>2016-12-26T13:22:19+01:00</time>
      </trkpt>
      <trkpt lat="43.5635" lon="3.31328">
        <ele>283</ele>
        <time>2016-12-26T13:22:53+01:00</time>
      </trkpt>
      <trkpt lat="43.56364" lon="3.31323">
        <ele>281</ele>
        <time>2016-12-26T13:23:43+01:00</time>
      </trkpt>
      <trkpt lat="43.56406" lon="3.31364">
        <ele>278</ele>
        <time>2016-12-26T13:24:40+01:00</time>
      </trkpt>
      <trkpt lat="43.56467" lon="3.31377">
        <ele>275</ele>
        <time>2016-12-26T13:26:04+01:00</time>
      </trkpt>
      <trkpt lat="43.56521" lon="3.31391">
        <ele>274</ele>
        <time>2016-12-26T13:26:48+01:00</time>
      </trkpt>
      <trkpt lat="43.56569" lon="3.31401">
        <ele>276</ele>
        <time>2016-12-26T13:27:41+01:00</time>
      </trkpt>
      <trkpt lat="43.56613" lon="3.3141">
        <ele>280</ele>
        <time>2016-12-26T13:28:52+01:00</time>
      </trkpt>
      <trkpt lat="43.56634" lon="3.31419">
        <ele>282</ele>
        <time>2017-04-03T23:34:07+02:00</time>
      </trkpt>
      <trkpt lat="43.56651" lon="3.31402">
        <ele>283</ele>
        <time>2016-12-26T13:29:45+01:00</time>
      </trkpt>
      <trkpt lat="43.56703" lon="3.31399">
        <ele>288</ele>
        <time>2016-12-26T13:31:29+01:00</time>
      </trkpt>
      <trkpt lat="43.56737" lon="3.31401">
        <ele>292</ele>
        <time>2017-04-03T23:34:22+02:00</time>
      </trkpt>
      <trkpt lat="43.56761" lon="3.31407">
        <ele>294</ele>
        <time>2016-12-26T13:32:28+01:00</time>
      </trkpt>
      <trkpt lat="43.56801" lon="3.3138">
        <ele>296</ele>
        <time>2016-12-26T13:33:20+01:00</time>
      </trkpt>
      <trkpt lat="43.56874" lon="3.31386">
        <ele>299</ele>
        <time>2016-12-26T13:34:21+01:00</time>
      </trkpt>
      <trkpt lat="43.56899" lon="3.31378">
        <ele>298</ele>
        <time>2016-12-26T13:35:10+01:00</time>
      </trkpt>
      <trkpt lat="43.56927" lon="3.3136">
        <ele>295</ele>
        <time>2016-12-26T13:35:52+01:00</time>
      </trkpt>
      <trkpt lat="43.56965" lon="3.31319">
        <ele>294</ele>
        <time>2016-12-26T13:36:35+01:00</time>
      </trkpt>
      <trkpt lat="43.57006" lon="3.31301">
        <ele>296</ele>
        <time>2016-12-26T13:37:27+01:00</time>
      </trkpt>
      <trkpt lat="43.57062" lon="3.31278">
        <ele>301</ele>
        <time>2016-12-26T13:38:15+01:00</time>
      </trkpt>
      <trkpt lat="43.57091" lon="3.31318">
        <ele>309</ele>
        <time>2016-12-26T13:39:21+01:00</time>
      </trkpt>
      <trkpt lat="43.57123" lon="3.31359">
        <ele>313</ele>
        <time>2016-12-26T13:40:35+01:00</time>
      </trkpt>
      <trkpt lat="43.57169" lon="3.31385">
        <ele>318</ele>
        <time>2016-12-26T13:41:34+01:00</time>
      </trkpt>
      <trkpt lat="43.57214" lon="3.31395">
        <ele>320</ele>
        <time>2016-12-26T13:42:26+01:00</time>
      </trkpt>
      <trkpt lat="43.57259" lon="3.31399">
        <ele>323</ele>
        <time>2016-12-26T13:43:02+01:00</time>
      </trkpt>
      <trkpt lat="43.57304" lon="3.31392">
        <ele>326</ele>
        <time>2016-12-26T13:43:48+01:00</time>
      </trkpt>
      <trkpt lat="43.57348" lon="3.31395">
        <ele>329</ele>
        <time>2016-12-26T13:44:55+01:00</time>
      </trkpt>
      <trkpt lat="43.5737" lon="3.314">
        <ele>332</ele>
        <time>2016-12-26T13:46:16+01:00</time>
      </trkpt>
      <trkpt lat="43.57394" lon="3.31474">
        <ele>337</ele>
        <time>2016-12-26T13:47:06+01:00</time>
      </trkpt>
      <trkpt lat="43.57394" lon="3.31517">
        <ele>340</ele>
        <time>2016-12-26T13:48:02+01:00</time>
      </trkpt>
      <trkpt lat="43.57365" lon="3.31594">
        <ele>344</ele>
        <time>2016-12-26T13:49:36+01:00</time>
      </trkpt>
      <trkpt lat="43.57367" lon="3.31625">
        <ele>345</ele>
        <time>2017-04-03T23:36:02+02:00</time>
      </trkpt>
      <trkpt lat="43.57382" lon="3.31669">
        <ele>349</ele>
        <time>2017-04-03T23:36:07+02:00</time>
      </trkpt>
      <trkpt lat="43.57383" lon="3.31742">
        <ele>344</ele>
        <time>2016-12-26T13:51:58+01:00</time>
      </trkpt>
      <trkpt lat="43.57421" lon="3.31827">
        <ele>338</ele>
        <time>2016-12-26T13:53:08+01:00</time>
      </trkpt>
      <trkpt lat="43.57437" lon="3.31848">
        <ele>333</ele>
        <time>2016-12-26T13:53:50+01:00</time>
      </trkpt>
      <trkpt lat="43.57475" lon="3.31813">
        <ele>332</ele>
        <time>2016-12-26T13:55:40+01:00</time>
      </trkpt>
      <trkpt lat="43.57507" lon="3.31762">
        <ele>334</ele>
        <time>2016-12-26T13:56:19+01:00</time>
      </trkpt>
      <trkpt lat="43.57538" lon="3.31717">
        <ele>335</ele>
        <time>2016-12-26T13:57:04+01:00</time>
      </trkpt>
      <trkpt lat="43.57577" lon="3.31654">
        <ele>335</ele>
        <time>2016-12-26T13:57:45+01:00</time>
      </trkpt>
      <trkpt lat="43.5758" lon="3.31667">
        <ele>332</ele>
        <time>2017-04-03T23:36:47+02:00</time>
      </trkpt>
      <trkpt lat="43.57559" lon="3.3171">
        <ele>331</ele>
        <time>2016-12-26T13:59:12+01:00</time>
      </trkpt>
      <trkpt lat="43.57533" lon="3.31791">
        <ele>327</ele>
        <time>2016-12-26T13:59:57+01:00</time>
      </trkpt>
      <trkpt lat="43.57522" lon="3.3185">
        <ele>321</ele>
        <time>2016-12-26T14:00:47+01:00</time>
      </trkpt>
      <trkpt lat="43.57513" lon="3.3191">
        <ele>315</ele>
        <time>2016-12-26T14:01:30+01:00</time>
      </trkpt>
      <trkpt lat="43.57504" lon="3.31973">
        <ele>310</ele>
        <time>2016-12-26T14:02:02+01:00</time>
      </trkpt>
      <trkpt lat="43.5751" lon="3.3203">
        <ele>306</ele>
        <time>2016-12-26T14:02:55+01:00</time>
      </trkpt>
      <trkpt lat="43.57519" lon="3.32075">
        <ele>303</ele>
        <time>2016-12-26T14:05:09+01:00</time>
      </trkpt>
      <trkpt lat="43.57522" lon="3.32126">
        <ele>298</ele>
        <time>2016-12-26T14:06:17+01:00</time>
      </trkpt>
      <trkpt lat="43.57501" lon="3.32189">
        <ele>292</ele>
        <time>2016-12-26T14:08:44+01:00</time>
      </trkpt>
      <trkpt lat="43.57477" lon="3.32226">
        <ele>289</ele>
        <time>2017-04-03T23:37:37+02:00</time>
      </trkpt>
      <trkpt lat="43.57463" lon="3.32238">
        <ele>288</ele>
        <time>2016-12-26T14:10:53+01:00</time>
      </trkpt>
      <trkpt lat="43.57502" lon="3.32229">
        <ele>284</ele>
        <time>2017-04-03T23:37:47+02:00</time>
      </trkpt>
      <trkpt lat="43.57543" lon="3.32189">
        <ele>286</ele>
        <time>2017-04-03T23:37:52+02:00</time>
      </trkpt>
      <trkpt lat="43.57568" lon="3.32156">
        <ele>289</ele>
        <time>2017-04-03T23:37:57+02:00</time>
      </trkpt>
      <trkpt lat="43.57584" lon="3.3219">
        <ele>281</ele>
        <time>2017-04-03T23:38:02+02:00</time>
      </trkpt>
      <trkpt lat="43.57595" lon="3.32193">
        <ele>278</ele>
        <time>2017-04-03T23:38:07+02:00</time>
      </trkpt>
      <trkpt lat="43.57608" lon="3.32188">
        <ele>278</ele>
        <time>2017-04-03T23:38:12+02:00</time>
      </trkpt>
      <trkpt lat="43.57634" lon="3.32172">
        <ele>276</ele>
        <time>2017-04-03T23:38:17+02:00</time>
      </trkpt>
      <trkpt lat="43.57666" lon="3.3215">
        <ele>275</ele>
        <time>2017-04-03T23:38:22+02:00</time>
      </trkpt>
      <trkpt lat="43.57708" lon="3.32133">
        <ele>274</ele>
        <time>2016-12-26T14:12:53+01:00</time>
      </trkpt>
      <trkpt lat="43.57756" lon="3.3209">
        <ele>273</ele>
        <time>2017-04-03T23:38:32+02:00</time>
      </trkpt>
      <trkpt lat="43.57703" lon="3.32164">
        <ele>269</ele>
        <time>2017-04-03T23:38:37+02:00</time>
      </trkpt>
      <trkpt lat="43.57694" lon="3.32205">
        <ele>268</ele>
        <time>2017-04-03T23:38:42+02:00</time>
      </trkpt>
      <trkpt lat="43.57691" lon="3.32227">
        <ele>267</ele>
        <time>2017-04-03T23:38:47+02:00</time>
      </trkpt>
      <trkpt lat="43.57671" lon="3.32264">
        <ele>264</ele>
        <time>2016-12-26T14:25:49+01:00</time>
      </trkpt>
      <trkpt lat="43.57635" lon="3.32308">
        <ele>265</ele>
        <time>2016-12-26T14:26:37+01:00</time>
      </trkpt>
      <trkpt lat="43.576" lon="3.32348">
        <ele>261</ele>
        <time>2016-12-26T14:27:21+01:00</time>
      </trkpt>
      <trkpt lat="43.57561" lon="3.3238">
        <ele>262</ele>
        <time>2016-12-26T14:28:07+01:00</time>
      </trkpt>
      <trkpt lat="43.57522" lon="3.32412">
        <ele>257</ele>
        <time>2016-12-26T14:28:49+01:00</time>
      </trkpt>
      <trkpt lat="43.57483" lon="3.32446">
        <ele>260</ele>
        <time>2016-12-26T14:29:33+01:00</time>
      </trkpt>
      <trkpt lat="43.57443" lon="3.32475">
        <ele>264</ele>
        <time>2016-12-26T14:30:22+01:00</time>
      </trkpt>
      <trkpt lat="43.57401" lon="3.325">
        <ele>263</ele>
        <time>2016-12-26T14:31:11+01:00</time>
      </trkpt>
      <trkpt lat="43.57358" lon="3.32517">
        <ele>259</ele>
        <time>2016-12-26T14:31:55+01:00</time>
      </trkpt>
      <trkpt lat="43.57316" lon="3.32543">
        <ele>260</ele>
        <time>2016-12-26T14:32:37+01:00</time>
      </trkpt>
      <trkpt lat="43.57287" lon="3.32553">
        <ele>258</ele>
        <time>2016-12-26T14:49:58+01:00</time>
      </trkpt>
      <trkpt lat="43.57255" lon="3.32582">
        <ele>262</ele>
        <time>2016-12-26T14:50:50+01:00</time>
      </trkpt>
      <trkpt lat="43.57231" lon="3.32599">
        <ele>260</ele>
        <time>2017-04-03T23:39:52+02:00</time>
      </trkpt>
      <trkpt lat="43.57193" lon="3.32616">
        <ele>254</ele>
        <time>2016-12-26T14:51:31+01:00</time>
      </trkpt>
      <trkpt lat="43.57156" lon="3.32653">
        <ele>253</ele>
        <time>2016-12-26T14:52:04+01:00</time>
      </trkpt>
      <trkpt lat="43.57147" lon="3.32688">
        <ele>254</ele>
        <time>2017-04-03T23:40:07+02:00</time>
      </trkpt>
      <trkpt lat="43.57144" lon="3.32727">
        <ele>255</ele>
        <time>2016-12-26T14:52:45+01:00</time>
      </trkpt>
      <trkpt lat="43.57139" lon="3.32779">
        <ele>253</ele>
        <time>2016-12-26T14:53:22+01:00</time>
      </trkpt>
      <trkpt lat="43.57115" lon="3.32862">
        <ele>248</ele>
        <time>2016-12-26T14:54:15+01:00</time>
      </trkpt>
      <trkpt lat="43.57094" lon="3.3289">
        <ele>246</ele>
        <time>2017-04-03T23:40:27+02:00</time>
      </trkpt>
      <trkpt lat="43.57093" lon="3.32847">
        <ele>247</ele>
        <time>2017-04-03T23:40:32+02:00</time>
      </trkpt>
      <trkpt lat="43.57098" lon="3.3281">
        <ele>247</ele>
        <time>2016-12-26T14:56:19+01:00</time>
      </trkpt>
      <trkpt lat="43.57109" lon="3.32759">
        <ele>248</ele>
        <time>2016-12-26T14:57:10+01:00</time>
      </trkpt>
      <trkpt lat="43.57111" lon="3.32711">
        <ele>245</ele>
        <time>2017-04-03T23:40:47+02:00</time>
      </trkpt>
      <trkpt lat="43.57106" lon="3.32657">
        <ele>238</ele>
        <time>2016-12-26T14:57:50+01:00</time>
      </trkpt>
      <trkpt lat="43.57108" lon="3.32615">
        <ele>232</ele>
        <time>2017-04-03T23:40:57+02:00</time>
      </trkpt>
      <trkpt lat="43.57125" lon="3.32584">
        <ele>231</ele>
        <time>2016-12-26T15:02:03+01:00</time>
      </trkpt>
      <trkpt lat="43.57149" lon="3.32554">
        <ele>230</ele>
        <time>2017-04-03T23:41:07+02:00</time>
      </trkpt>
      <trkpt lat="43.57174" lon="3.32536">
        <ele>230</ele>
        <time>2016-12-26T15:02:50+01:00</time>
      </trkpt>
      <trkpt lat="43.57162" lon="3.32535">
        <ele>228</ele>
        <time>2016-12-26T15:04:17+01:00</time>
      </trkpt>
      <trkpt lat="43.57117" lon="3.32548">
        <ele>222</ele>
        <time>2017-04-03T23:41:22+02:00</time>
      </trkpt>
      <trkpt lat="43.57091" lon="3.32564">
        <ele>219</ele>
        <time>2016-12-26T15:05:03+01:00</time>
      </trkpt>
      <trkpt lat="43.57066" lon="3.32575">
        <ele>216</ele>
        <time>2017-04-03T23:41:32+02:00</time>
      </trkpt>
      <trkpt lat="43.57057" lon="3.32589">
        <ele>216</ele>
        <time>2016-12-26T15:06:09+01:00</time>
      </trkpt>
      <trkpt lat="43.57055" lon="3.32617">
        <ele>221</ele>
        <time>2017-04-03T23:41:42+02:00</time>
      </trkpt>
      <trkpt lat="43.57008" lon="3.32584">
        <ele>207</ele>
        <time>2016-12-26T15:07:17+01:00</time>
      </trkpt>
      <trkpt lat="43.56993" lon="3.32583">
        <ele>205</ele>
        <time>2016-12-26T15:10:18+01:00</time>
      </trkpt>
      <trkpt lat="43.56974" lon="3.3259">
        <ele>206</ele>
        <time>2016-12-26T15:12:15+01:00</time>
      </trkpt>
      <trkpt lat="43.56942" lon="3.32591">
        <ele>203</ele>
        <time>2016-12-26T15:13:05+01:00</time>
      </trkpt>
      <trkpt lat="43.56916" lon="3.32594">
        <ele>202</ele>
        <time>2017-04-03T23:42:07+02:00</time>
      </trkpt>
      <trkpt lat="43.56885" lon="3.32593">
        <ele>199</ele>
        <time>2016-12-26T15:13:42+01:00</time>
      </trkpt>
      <trkpt lat="43.56862" lon="3.32588">
        <ele>196</ele>
        <time>2016-12-26T15:14:30+01:00</time>
      </trkpt>
      <trkpt lat="43.56838" lon="3.32598">
        <ele>196</ele>
        <time>2017-04-03T23:42:22+02:00</time>
      </trkpt>
      <trkpt lat="43.56819" lon="3.32606">
        <ele>197</ele>
        <time>2017-04-03T23:42:27+02:00</time>
      </trkpt>
      <trkpt lat="43.56801" lon="3.32608">
        <ele>196</ele>
        <time>2016-12-26T15:15:14+01:00</time>
      </trkpt>
      <trkpt lat="43.56751" lon="3.32632">
        <ele>195</ele>
        <time>2016-12-26T15:15:49+01:00</time>
      </trkpt>
      <trkpt lat="43.56725" lon="3.32645">
        <ele>194</ele>
        <time>2017-04-03T23:42:42+02:00</time>
      </trkpt>
      <trkpt lat="43.56703" lon="3.32665">
        <ele>191</ele>
        <time>2016-12-26T15:16:36+01:00</time>
      </trkpt>
      <trkpt lat="43.56667" lon="3.32701">
        <ele>189</ele>
        <time>2016-12-26T15:17:18+01:00</time>
      </trkpt>
      <trkpt lat="43.56609" lon="3.32747">
        <ele>184</ele>
        <time>2017-04-03T23:42:57+02:00</time>
      </trkpt>
      <trkpt lat="43.5655" lon="3.32788">
        <ele>184</ele>
        <time>2016-12-26T15:19:12+01:00</time>
      </trkpt>
      <trkpt lat="43.56507" lon="3.32817">
        <ele>181</ele>
        <time>2016-12-26T15:19:46+01:00</time>
      </trkpt>
      <trkpt lat="43.56473" lon="3.32828">
        <ele>177</ele>
        <time>2016-12-26T15:20:25+01:00</time>
      </trkpt>
      <trkpt lat="43.56454" lon="3.32842">
        <ele>177</ele>
        <time>2017-04-03T23:43:17+02:00</time>
      </trkpt>
      <trkpt lat="43.56448" lon="3.32843">
        <ele>176</ele>
        <time>2017-04-03T23:43:22+02:00</time>
      </trkpt>
      <trkpt lat="43.5644" lon="3.32836">
        <ele>175</ele>
        <time>2017-04-03T23:43:27+02:00</time>
      </trkpt>
      <trkpt lat="43.56434" lon="3.32833">
        <ele>174</ele>
        <time>2016-12-26T15:21:16+01:00</time>
      </trkpt>
      <trkpt lat="43.56384" lon="3.32862">
        <ele>172</ele>
        <time>2016-12-26T15:21:53+01:00</time>
      </trkpt>
      <trkpt lat="43.56378" lon="3.32882">
        <ele>172</ele>
        <time>2017-04-03T23:43:42+02:00</time>
      </trkpt>
      <trkpt lat="43.5636" lon="3.32917">
        <ele>172</ele>
        <time>2016-12-26T15:22:40+01:00</time>
      </trkpt>
      <trkpt lat="43.56321" lon="3.32969">
        <ele>171</ele>
        <time>2016-12-26T15:23:22+01:00</time>
      </trkpt>
      <trkpt lat="43.56308" lon="3.32998">
        <ele>172</ele>
        <time>2017-04-03T23:43:57+02:00</time>
      </trkpt>
      <trkpt lat="43.56301" lon="3.32994">
        <ele>171</ele>
        <time>2017-04-03T23:44:02+02:00</time>
      </trkpt>
      <trkpt lat="43.56292" lon="3.32981">
        <ele>170</ele>
        <time>2017-04-03T23:44:07+02:00</time>
      </trkpt>
      <trkpt lat="43.56278" lon="3.32968">
        <ele>169</ele>
        <time>2016-12-26T15:24:14+01:00</time>
      </trkpt>
      <trkpt lat="43.56265" lon="3.32966">
        <ele>169</ele>
        <time>2017-04-03T23:44:17+02:00</time>
      </trkpt>
      <trkpt lat="43.56261" lon="3.32956">
        <ele>169</ele>
        <time>2017-04-03T23:44:22+02:00</time>
      </trkpt>
      <trkpt lat="43.56262" lon="3.3294">
        <ele>170</ele>
        <time>2017-04-03T23:44:27+02:00</time>
      </trkpt>
      <trkpt lat="43.56263" lon="3.32908">
        <ele>170</ele>
        <time>2016-12-26T15:24:59+01:00</time>
      </trkpt>
      <trkpt lat="43.56261" lon="3.32844">
        <ele>172</ele>
        <time>2016-12-26T15:25:43+01:00</time>
      </trkpt>
      <trkpt lat="43.56262" lon="3.32799">
        <ele>173</ele>
        <time>2017-04-03T23:44:42+02:00</time>
      </trkpt>
      <trkpt lat="43.56265" lon="3.32791">
        <ele>173</ele>
        <time>2017-04-03T23:44:47+02:00</time>
      </trkpt>
      <trkpt lat="43.56271" lon="3.32784">
        <ele>173</ele>
        <time>2016-12-26T15:26:23+01:00</time>
      </trkpt>
      <trkpt lat="43.56276" lon="3.32768">
        <ele>173</ele>
        <time>2017-04-03T23:44:57+02:00</time>
      </trkpt>
      <trkpt lat="43.56276" lon="3.32753">
        <ele>173</ele>
        <time>2017-04-03T23:45:02+02:00</time>
      </trkpt>
      <trkpt lat="43.56274" lon="3.32721">
        <ele>175</ele>
        <time>2016-12-26T15:27:01+01:00</time>
      </trkpt>
      <trkpt lat="43.56271" lon="3.32659">
        <ele>179</ele>
        <time>2016-12-26T15:27:40+01:00</time>
      </trkpt>
      <trkpt lat="43.56266" lon="3.32596">
        <ele>182</ele>
        <time>2016-12-26T15:28:17+01:00</time>
      </trkpt>
      <trkpt lat="43.56262" lon="3.32562">
        <ele>182</ele>
        <time>2017-04-03T23:45:22+02:00</time>
      </trkpt>
      <trkpt lat="43.56262" lon="3.32533">
        <ele>182</ele>
        <time>2016-12-26T15:28:53+01:00</time>
      </trkpt>
      <trkpt lat="43.56267" lon="3.32469">
        <ele>183</ele>
        <time>2016-12-26T15:29:32+01:00</time>
      </trkpt>
      <trkpt lat="43.5627" lon="3.32426">
        <ele>184</ele>
        <time>2017-04-03T23:45:37+02:00</time>
      </trkpt>
      <trkpt lat="43.56278" lon="3.32387">
        <ele>185</ele>
        <time>2017-04-03T23:45:42+02:00</time>
      </trkpt>
      <trkpt lat="43.5628" lon="3.32353">
        <ele>187</ele>
        <time>2016-12-26T15:30:11+01:00</time>
      </trkpt>
      <trkpt lat="43.56268" lon="3.32376">
        <ele>187</ele>
        <time>2017-04-03T23:45:52+02:00</time>
      </trkpt>
      <trkpt lat="43.56251" lon="3.32427">
        <ele>186</ele>
        <time>2016-12-26T15:32:14+01:00</time>
      </trkpt>
      <trkpt lat="43.56243" lon="3.3247">
        <ele>187</ele>
        <time>2017-04-03T23:46:02+02:00</time>
      </trkpt>
      <trkpt lat="43.5623" lon="3.32508">
        <ele>191</ele>
        <time>2016-12-26T15:32:55+01:00</time>
      </trkpt>
      <trkpt lat="43.56214" lon="3.32528">
        <ele>195</ele>
        <time>2017-04-03T23:46:12+02:00</time>
      </trkpt>
      <trkpt lat="43.56207" lon="3.32527">
        <ele>198</ele>
        <time>2017-04-03T23:46:17+02:00</time>
      </trkpt>
      <trkpt lat="43.56218" lon="3.32489">
        <ele>196</ele>
        <time>2017-04-03T23:46:22+02:00</time>
      </trkpt>
      <trkpt lat="43.56221" lon="3.32448">
        <ele>197</ele>
        <time>2016-12-26T15:34:09+01:00</time>
      </trkpt>
      <trkpt lat="43.5622" lon="3.32371">
        <ele>200</ele>
        <time>2016-12-26T15:35:23+01:00</time>
      </trkpt>
      <trkpt lat="43.56213" lon="3.32373">
        <ele>202</ele>
        <time>2017-04-03T23:46:37+02:00</time>
      </trkpt>
      <trkpt lat="43.562" lon="3.32424">
        <ele>207</ele>
        <time>2016-12-26T15:36:33+01:00</time>
      </trkpt>
      <trkpt lat="43.56191" lon="3.32462">
        <ele>208</ele>
        <time>2017-04-03T23:46:47+02:00</time>
      </trkpt>
      <trkpt lat="43.56175" lon="3.32495">
        <ele>212</ele>
        <time>2016-12-26T15:37:18+01:00</time>
      </trkpt>
      <trkpt lat="43.56147" lon="3.32542">
        <ele>217</ele>
        <time>2016-12-26T15:38:02+01:00</time>
      </trkpt>
      <trkpt lat="43.56115" lon="3.32589">
        <ele>220</ele>
        <time>2016-12-26T15:38:47+01:00</time>
      </trkpt>
      <trkpt lat="43.5608" lon="3.32608">
        <ele>226</ele>
        <time>2016-12-26T15:39:30+01:00</time>
      </trkpt>
      <trkpt lat="43.56056" lon="3.32621">
        <ele>230</ele>
        <time>2017-04-03T23:47:12+02:00</time>
      </trkpt>
      <trkpt lat="43.56037" lon="3.32635">
        <ele>233</ele>
        <time>2016-12-26T15:40:16+01:00</time>
      </trkpt>
      <trkpt lat="43.56031" lon="3.32654">
        <ele>232</ele>
        <time>2017-04-03T23:47:22+02:00</time>
      </trkpt>
      <trkpt lat="43.56023" lon="3.32723">
        <ele>232</ele>
        <time>2016-12-26T15:41:01+01:00</time>
      </trkpt>
      <trkpt lat="43.56038" lon="3.32754">
        <ele>227</ele>
        <time>2016-12-26T15:41:44+01:00</time>
      </trkpt>
      <trkpt lat="43.56039" lon="3.32779">
        <ele>227</ele>
        <time>2017-04-03T23:47:37+02:00</time>
      </trkpt>
      <trkpt lat="43.56041" lon="3.328">
        <ele>227</ele>
        <time>2017-04-03T23:47:42+02:00</time>
      </trkpt>
      <trkpt lat="43.56037" lon="3.32823">
        <ele>229</ele>
        <time>2016-12-26T15:42:32+01:00</time>
      </trkpt>
      <trkpt lat="43.5603" lon="3.3285">
        <ele>231</ele>
        <time>2017-04-03T23:47:52+02:00</time>
      </trkpt>
      <trkpt lat="43.56008" lon="3.32895">
        <ele>236</ele>
        <time>2016-12-26T15:43:16+01:00</time>
      </trkpt>
      <trkpt lat="43.56" lon="3.32902">
        <ele>238</ele>
        <time>2017-04-03T23:48:02+02:00</time>
      </trkpt>
      <trkpt lat="43.55978" lon="3.32911">
        <ele>241</ele>
        <time>2016-12-26T15:44:40+01:00</time>
      </trkpt>
      <trkpt lat="43.55957" lon="3.32924">
        <ele>244</ele>
        <time>2017-04-03T23:48:12+02:00</time>
      </trkpt>
      <trkpt lat="43.5594" lon="3.32943">
        <ele>246</ele>
        <time>2016-12-26T15:45:23+01:00</time>
      </trkpt>
      <trkpt lat="43.55928" lon="3.32975">
        <ele>244</ele>
        <time>2016-12-26T15:46:03+01:00</time>
      </trkpt>
      <trkpt lat="43.55909" lon="3.32992">
        <ele>245</ele>
        <time>2017-04-03T23:48:27+02:00</time>
      </trkpt>
      <trkpt lat="43.55895" lon="3.33043">
        <ele>243</ele>
        <time>2016-12-26T15:46:56+01:00</time>
      </trkpt>
      <trkpt lat="43.55861" lon="3.33086">
        <ele>246</ele>
        <time>2016-12-26T15:47:35+01:00</time>
      </trkpt>
      <trkpt lat="43.5583" lon="3.33141">
        <ele>247</ele>
        <time>2016-12-26T15:48:15+01:00</time>
      </trkpt>
      <trkpt lat="43.55806" lon="3.33194">
        <ele>252</ele>
        <time>2016-12-26T15:48:58+01:00</time>
      </trkpt>
      <trkpt lat="43.55788" lon="3.33255">
        <ele>256</ele>
        <time>2016-12-26T15:49:39+01:00</time>
      </trkpt>
      <trkpt lat="43.55773" lon="3.3331">
        <ele>256</ele>
        <time>2016-12-26T15:50:23+01:00</time>
      </trkpt>
      <trkpt lat="43.5575" lon="3.33363">
        <ele>255</ele>
        <time>2016-12-26T15:51:06+01:00</time>
      </trkpt>
      <trkpt lat="43.55718" lon="3.33407">
        <ele>256</ele>
        <time>2017-04-03T23:49:07+02:00</time>
      </trkpt>
      <trkpt lat="43.557" lon="3.33446">
        <ele>258</ele>
        <time>2016-12-26T15:51:47+01:00</time>
      </trkpt>
      <trkpt lat="43.55696" lon="3.33431">
        <ele>258</ele>
        <time>2017-04-03T23:49:17+02:00</time>
      </trkpt>
      <trkpt lat="43.55711" lon="3.33388">
        <ele>256</ele>
        <time>2017-04-03T23:49:22+02:00</time>
      </trkpt>
      <trkpt lat="43.55686" lon="3.33355">
        <ele>257</ele>
        <time>2016-12-26T15:53:38+01:00</time>
      </trkpt>
      <trkpt lat="43.55665" lon="3.33328">
        <ele>258</ele>
        <time>2016-12-26T15:54:17+01:00</time>
      </trkpt>
      <trkpt lat="43.55635" lon="3.33312">
        <ele>258</ele>
        <time>2017-04-03T23:49:37+02:00</time>
      </trkpt>
      <trkpt lat="43.55604" lon="3.33304">
        <ele>257</ele>
        <time>2016-12-26T15:54:57+01:00</time>
      </trkpt>
      <trkpt lat="43.55543" lon="3.33291">
        <ele>255</ele>
        <time>2016-12-26T15:55:37+01:00</time>
      </trkpt>
      <trkpt lat="43.55534" lon="3.3328">
        <ele>255</ele>
        <time>2017-04-03T23:49:52+02:00</time>
      </trkpt>
      <trkpt lat="43.55524" lon="3.33255">
        <ele>255</ele>
        <time>2016-12-26T15:56:32+01:00</time>
      </trkpt>
      <trkpt lat="43.55516" lon="3.33227">
        <ele>254</ele>
        <time>2017-04-03T23:50:02+02:00</time>
      </trkpt>
      <trkpt lat="43.55502" lon="3.33205">
        <ele>253</ele>
        <time>2016-12-26T15:57:22+01:00</time>
      </trkpt>
      <trkpt lat="43.55469" lon="3.33204">
        <ele>252</ele>
        <time>2016-12-26T15:58:10+01:00</time>
      </trkpt>
      <trkpt lat="43.55441" lon="3.33209">
        <ele>252</ele>
        <time>2017-04-03T23:50:17+02:00</time>
      </trkpt>
      <trkpt lat="43.55435" lon="3.3319">
        <ele>253</ele>
        <time>2017-04-03T23:50:22+02:00</time>
      </trkpt>
      <trkpt lat="43.55424" lon="3.3318">
        <ele>253</ele>
        <time>2017-04-03T23:50:27+02:00</time>
      </trkpt>
      <trkpt lat="43.55414" lon="3.33151">
        <ele>255</ele>
        <time>2016-12-26T15:59:31+01:00</time>
      </trkpt>
      <trkpt lat="43.55394" lon="3.33147">
        <ele>257</ele>
        <time>2016-12-26T16:00:43+01:00</time>
      </trkpt>
      <trkpt lat="43.55358" lon="3.33168">
        <ele>257</ele>
        <time>2016-12-26T16:01:57+01:00</time>
      </trkpt>
      <trkpt lat="43.55269" lon="3.33202">
        <ele>259</ele>
        <time>2016-12-26T16:02:44+01:00</time>
      </trkpt>
      <trkpt lat="43.55253" lon="3.33189">
        <ele>261</ele>
        <time>2016-12-26T16:03:33+01:00</time>
      </trkpt>
      <trkpt lat="43.55187" lon="3.33233">
        <ele>251</ele>
        <time>2016-12-26T16:04:17+01:00</time>
      </trkpt>
      <trkpt lat="43.55165" lon="3.33247">
        <ele>248</ele>
        <time>2016-12-26T16:04:59+01:00</time>
      </trkpt>
      <trkpt lat="43.55132" lon="3.33245">
        <ele>244</ele>
        <time>2017-04-03T23:51:07+02:00</time>
      </trkpt>
      <trkpt lat="43.55094" lon="3.3324">
        <ele>241</ele>
        <time>2016-12-26T16:05:41+01:00</time>
      </trkpt>
      <trkpt lat="43.55072" lon="3.33226">
        <ele>241</ele>
        <time>2016-12-26T16:06:24+01:00</time>
      </trkpt>
      <trkpt lat="43.55051" lon="3.33189">
        <ele>246</ele>
        <time>2017-04-03T23:51:22+02:00</time>
      </trkpt>
      <trkpt lat="43.55036" lon="3.33187">
        <ele>246</ele>
        <time>2016-12-26T16:07:11+01:00</time>
      </trkpt>
      <trkpt lat="43.54992" lon="3.33197">
        <ele>245</ele>
        <time>2016-12-26T16:07:59+01:00</time>
      </trkpt>
      <trkpt lat="43.54953" lon="3.33213">
        <ele>246</ele>
        <time>2017-04-03T23:51:37+02:00</time>
      </trkpt>
      <trkpt lat="43.54913" lon="3.33216">
        <ele>248</ele>
        <time>2017-04-03T23:51:42+02:00</time>
      </trkpt>
      <trkpt lat="43.54896" lon="3.33177">
        <ele>250</ele>
        <time>2016-12-26T16:08:40+01:00</time>
      </trkpt>
    </trkseg>
  </trk>
</gpx>